Time;durP1;ratioP1;P1;durP2;ratioP2;P2;SDS_P1;SDS_P2;PMS_P1;PMS_P2;Temp;Humidity;BMP_temperature;BMP_pressure;BME280_temperature;BME280_humidity;BME280_pressure;Samples;Min_cycle;Max_cycle;Signal;HPM_P1;HPM_P2
2023/03/08 00:00:11;;;;;;;23.15;15.02;;;;;;;10.27;72.70;99387.13;4905895;29;20408;-71
2023/03/08 00:02:38;;;;;;;21.70;13.60;;;;;;;10.37;72.05;99375.66;4911687;29;20064;-70
2023/03/08 00:05:07;;;;;;;18.77;12.45;;;;;;;9.91;72.05;99376.84;4924066;29;20055;-71
2023/03/08 00:07:34;;;;;;;22.15;14.10;;;;;;;10.26;73.53;99375.28;4920821;29;20055;-73
2023/03/08 00:10:03;;;;;;;20.02;14.15;;;;;;;10.48;72.70;99363.81;4905405;29;20055;-72
2023/03/08 00:12:30;;;;;;;23.05;13.80;;;;;;;10.05;72.84;99360.81;4920941;29;20059;-71
2023/03/08 00:14:58;;;;;;;22.83;14.45;;;;;;;10.29;73.65;99363.59;4922162;29;20503;-70
2023/03/08 00:17:25;;;;;;;22.25;14.18;;;;;;;10.00;73.02;99355.53;4906297;29;20075;-71
2023/03/08 00:19:52;;;;;;;24.20;14.88;;;;;;;10.56;73.04;99357.41;4921910;29;20060;-71
2023/03/08 00:22:20;;;;;;;21.50;13.65;;;;;;;10.88;71.16;99359.16;4936564;29;20055;-71
2023/03/08 00:24:47;;;;;;;21.67;14.70;;;;;;;10.83;70.66;99353.09;4923948;29;20044;-71
2023/03/08 00:27:14;;;;;;;22.98;14.75;;;;;;;10.70;71.07;99351.53;4937587;29;20044;-70
2023/03/08 00:29:42;;;;;;;24.88;14.45;;;;;;;10.81;70.30;99339.66;4923961;29;20060;-70
2023/03/08 00:32:09;;;;;;;21.85;14.00;;;;;;;10.54;71.22;99332.16;4926176;29;20044;-70
2023/03/08 00:34:37;;;;;;;24.25;14.18;;;;;;;10.11;72.71;99337.47;4920404;29;20048;-72
2023/03/08 00:37:04;;;;;;;23.38;14.88;;;;;;;9.97;73.58;99334.22;4920842;29;20051;-70
2023/03/08 00:39:31;;;;;;;21.65;13.27;;;;;;;10.20;73.96;99327.13;4924246;29;20514;-70
2023/03/08 00:41:59;;;;;;;23.75;15.35;;;;;;;10.39;72.09;99312.81;4921074;29;20051;-73
2023/03/08 00:44:27;;;;;;;19.05;13.80;;;;;;;10.48;71.87;99308.75;4935218;29;20067;-71
2023/03/08 00:46:54;;;;;;;25.38;13.98;;;;;;;10.15;73.36;99297.91;4907213;29;20159;-70
2023/03/08 00:49:22;;;;;;;23.88;14.35;;;;;;;9.77;74.30;99302.09;4904690;29;20051;-71
2023/03/08 00:51:50;;;;;;;25.73;14.80;;;;;;;9.99;75.13;99288.72;4897088;29;20064;-70
2023/03/08 00:54:17;;;;;;;23.45;14.77;;;;;;;9.97;74.33;99280.00;4937576;29;20047;-71
2023/03/08 00:56:45;;;;;;;23.48;15.27;;;;;;;10.20;73.85;99261.09;4910536;29;20522;-71
2023/03/08 00:59:12;;;;;;;26.45;13.77;;;;;;;10.10;72.09;99256.06;4904881;29;20063;-70
2023/03/08 01:01:40;;;;;;;23.58;14.80;;;;;;;9.81;74.07;99245.28;4920048;29;20056;-71
2023/03/08 01:04:07;;;;;;;21.08;14.18;;;;;;;9.08;76.88;99247.91;4921257;29;20380;-72
2023/03/08 01:06:34;;;;;;;24.13;14.65;;;;;;;9.21;77.49;99242.44;4921428;29;20040;-71
2023/03/08 01:09:02;;;;;;;21.13;13.93;;;;;;;9.29;79.28;99238.81;4920315;29;20083;-71
2023/03/08 01:11:32;;;;;;;24.42;15.05;;;;;;;9.15;78.35;99225.41;4926807;29;20052;-71
2023/03/08 01:13:59;;;;;;;23.48;14.40;;;;;;;9.96;76.59;99212.38;4921666;29;20060;-71
2023/03/08 01:16:29;;;;;;;21.55;13.48;;;;;;;9.91;75.57;99212.63;4926887;29;20519;-71
2023/03/08 01:19:00;;;;;;;23.00;14.05;;;;;;;9.75;75.65;99211.72;4922940;29;20059;-71
2023/03/08 01:21:29;;;;;;;23.40;14.37;;;;;;;9.43;78.04;99209.09;4905656;29;20056;-71
2023/03/08 01:23:57;;;;;;;19.95;13.13;;;;;;;9.45;76.45;99196.59;4922301;29;20058;-73
2023/03/08 01:26:27;;;;;;;22.25;13.98;;;;;;;9.30;76.13;99193.72;4922875;29;20412;-71
2023/03/08 01:28:55;;;;;;;21.25;13.73;;;;;;;9.59;77.37;99182.53;4919835;29;20060;-71
2023/03/08 01:31:32;;;;;;;21.67;13.88;;;;;;;9.45;77.96;99179.31;4918301;29;20699;-71
2023/03/08 01:34:00;;;;;;;23.48;14.68;;;;;;;9.23;78.34;99172.31;4903696;29;20059;-70
2023/03/08 01:36:27;;;;;;;21.70;14.27;;;;;;;9.85;76.30;99166.47;4902102;29;20060;-71
2023/03/08 01:38:55;;;;;;;24.23;14.25;;;;;;;9.63;75.86;99154.00;4920718;29;20071;-71
2023/03/08 01:41:28;;;;;;;20.15;13.60;;;;;;;9.33;78.11;99154.59;4908367;29;20151;-72
2023/03/08 01:43:55;;;;;;;22.40;13.95;;;;;;;9.55;76.82;99154.91;4903088;29;20519;-70
2023/03/08 01:46:34;;;;;;;22.35;14.10;;;;;;;9.43;78.39;99149.41;4908256;29;20060;-71
2023/03/08 01:49:12;;;;;;;21.50;13.55;;;;;;;9.88;77.27;99150.06;4918538;29;20048;-70
2023/03/08 01:51:59;;;;;;;24.98;13.98;;;;;;;9.58;75.98;99140.47;4919512;29;20500;-70
2023/03/08 01:54:29;;;;;;;25.27;14.95;;;;;;;9.27;78.45;99132.03;4920322;29;20052;-71
2023/03/08 01:57:00;;;;;;;21.80;14.40;;;;;;;9.98;76.69;99126.78;4917507;29;20056;-71
2023/03/08 01:59:29;;;;;;;21.17;14.00;;;;;;;10.05;75.06;99115.97;4903762;29;20063;-70
2023/03/08 02:01:58;;;;;;;24.02;14.13;;;;;;;10.06;74.77;99126.63;4916642;29;20075;-71
2023/03/08 02:04:25;;;;;;;23.65;14.00;;;;;;;9.42;76.70;99122.28;4918958;29;20055;-70
2023/03/08 02:06:54;;;;;;;22.10;14.05;;;;;;;10.01;75.40;99115.88;4917117;29;20060;-69
2023/03/08 02:09:23;;;;;;;22.27;13.18;;;;;;;9.81;77.62;99105.84;4918955;29;20059;-69
2023/03/08 02:11:53;;;;;;;22.52;13.15;;;;;;;9.45;78.23;99086.66;4891411;29;20515;-70
2023/03/08 02:14:21;;;;;;;21.90;13.32;;;;;;;9.71;76.54;99091.78;4919027;29;20055;-70
2023/03/08 02:16:50;;;;;;;20.83;13.07;;;;;;;10.13;75.86;99082.84;4917090;29;20063;-70
2023/03/08 02:19:46;;;;;;;20.00;12.82;;;;;;;10.20;75.57;99076.75;4921167;29;20072;-71
2023/03/08 02:22:14;;;;;;;19.40;12.48;;;;;;;10.26;74.31;99072.59;4920552;29;20068;-71
2023/03/08 02:24:42;;;;;;;19.33;12.80;;;;;;;10.36;75.40;99060.25;4920162;29;20052;-71
2023/03/08 02:27:19;;;;;;;21.48;13.20;;;;;;;9.93;76.45;99053.56;4918446;29;20059;-72
2023/03/08 02:29:48;;;;;;;19.52;12.52;;;;;;;9.92;77.04;99043.69;4903192;29;20103;-72
2023/03/08 02:32:15;;;;;;;18.23;11.73;;;;;;;10.33;74.68;99033.47;4928251;29;20059;-70
2023/03/08 02:34:43;;;;;;;23.38;12.95;;;;;;;9.59;78.24;99021.13;4909698;29;20070;-70
2023/03/08 02:37:11;;;;;;;20.63;13.18;;;;;;;9.89;76.25;99014.16;4920539;29;20056;-70
2023/03/08 02:39:39;;;;;;;21.73;13.15;;;;;;;9.54;78.78;99004.88;4941700;29;20055;-72
2023/03/08 02:42:06;;;;;;;20.90;12.85;;;;;;;9.95;77.52;99001.78;4924382;29;20059;-70
2023/03/08 02:44:34;;;;;;;23.35;12.38;;;;;;;9.43;79.38;98984.53;4912928;29;20059;-71
2023/03/08 02:47:02;;;;;;;18.52;12.07;;;;;;;9.58;78.26;98977.50;4938290;29;20133;-71
2023/03/08 02:49:29;;;;;;;18.83;12.57;;;;;;;9.03;79.78;98984.50;4932567;29;20040;-71
2023/03/08 02:51:57;;;;;;;18.00;11.48;;;;;;;9.07;79.78;98990.91;4923825;29;20052;-69
2023/03/08 02:54:25;;;;;;;19.45;12.23;;;;;;;9.33;81.65;98978.75;4915078;29;20056;-70
2023/03/08 02:56:53;;;;;;;20.73;11.02;;;;;;;8.65;80.57;98967.59;4923254;29;20055;-71
2023/03/08 02:59:20;;;;;;;19.83;11.32;;;;;;;9.02;80.69;98946.41;4893519;29;20055;-70
2023/03/08 03:01:51;;;;;;;17.80;11.63;;;;;;;9.40;80.62;98935.75;4935390;29;20060;-70
2023/03/08 03:04:19;;;;;;;18.25;11.82;;;;;;;9.30;80.23;98924.47;4928321;29;20051;-70
2023/03/08 03:06:47;;;;;;;16.35;10.43;;;;;;;9.50;79.51;98912.50;4930381;29;20055;-70
2023/03/08 03:09:15;;;;;;;17.15;10.68;;;;;;;9.13;79.30;98887.09;4924641;29;20488;-69
2023/03/08 03:11:42;;;;;;;16.65;10.60;;;;;;;8.68;81.42;98886.53;4923951;29;20055;-69
2023/03/08 03:14:10;;;;;;;18.23;11.10;;;;;;;8.88;82.83;98869.09;4931899;29;20050;-69
2023/03/08 03:16:41;;;;;;;18.23;11.80;;;;;;;8.79;82.61;98858.25;4917912;29;20052;-70
2023/03/08 03:19:10;;;;;;;17.98;11.38;;;;;;;8.98;82.16;98852.13;4925914;29;20048;-69
2023/03/08 03:21:38;;;;;;;17.05;11.23;;;;;;;9.55;79.76;98860.03;4924055;29;20051;-69
2023/03/08 03:24:06;;;;;;;17.95;11.82;;;;;;;8.99;81.79;98851.00;4924709;29;20055;-69
2023/03/08 03:26:42;;;;;;;16.67;10.73;;;;;;;8.26;83.65;98847.56;4919393;29;20056;-70
2023/03/08 03:29:10;;;;;;;16.20;10.55;;;;;;;8.61;83.76;98812.97;4905861;29;20044;-69
2023/03/08 03:31:40;;;;;;;;;;;;;;;8.76;81.89;98800.50;4911403;29;20661;-68
2023/03/08 03:34:08;;;;;;;15.35;9.07;;;;;;;8.81;82.57;98809.28;4928999;29;19922;-70
2023/03/08 03:36:36;;;;;;;17.95;10.15;;;;;;;9.53;81.16;98807.34;4921103;29;20044;-69
2023/03/08 03:39:04;;;;;;;15.27;9.45;;;;;;;9.44;79.69;98791.03;4905435;29;20056;-69
2023/03/08 03:41:33;;;;;;;14.43;10.18;;;;;;;8.42;80.81;98790.84;4912386;29;20053;-70
2023/03/08 03:44:05;;;;;;;16.25;10.63;;;;;;;8.82;84.15;98777.94;4902412;29;20048;-70
2023/03/08 03:46:34;;;;;;;15.52;9.88;;;;;;;9.21;83.37;98770.78;4919602;29;20063;-70
2023/03/08 03:49:04;;;;;;;;;;;;;;;9.28;80.74;98749.00;4921229;29;20157;-71
2023/03/08 03:51:36;;;;;;;14.75;10.07;;;;;;;9.03;82.77;98740.09;4912387;29;19923;-70
2023/03/08 03:54:13;;;;;;;17.35;10.25;;;;;;;9.34;81.93;98755.03;4922689;29;20063;-70
2023/03/08 03:56:42;;;;;;;14.55;10.25;;;;;;;9.64;80.59;98746.00;4919614;29;20508;-69
2023/03/08 03:59:10;;;;;;;14.68;9.32;;;;;;;9.10;80.22;98739.47;4922528;29;20048;-69
2023/03/08 04:01:37;;;;;;;13.85;9.07;;;;;;;9.10;82.84;98736.72;4915875;29;20056;-69
2023/03/08 04:04:14;;;;;;;16.35;9.23;;;;;;;9.08;80.58;98714.34;4886819;29;20129;-69
2023/03/08 04:06:43;;;;;;;14.68;9.23;;;;;;;8.67;83.40;98707.31;4897082;29;20071;-69
2023/03/08 04:09:17;;;;;;;13.18;9.23;;;;;;;8.91;84.32;98709.94;4905938;29;20221;-70
2023/03/08 04:11:55;;;;;;;11.65;8.32;;;;;;;9.07;84.06;98699.81;4914207;29;20052;-70
2023/03/08 04:14:23;;;;;;;11.73;8.02;;;;;;;9.17;83.48;98676.50;4886001;29;20501;-69
2023/03/08 04:16:52;;;;;;;11.03;7.70;;;;;;;9.63;82.47;98686.69;4913389;29;20056;-70
2023/03/08 04:19:29;;;;;;;12.13;7.43;;;;;;;9.59;80.26;98671.28;4921702;29;20064;-71
2023/03/08 04:21:57;;;;;;;11.55;7.38;;;;;;;9.72;79.79;98678.25;4915863;29;20055;-70
2023/03/08 04:24:31;;;;;;;11.38;7.30;;;;;;;9.58;80.15;98666.91;4921056;29;20514;-70
2023/03/08 04:27:03;;;;;;;10.63;6.82;;;;;;;9.21;82.70;98657.34;4918728;29;20056;-69
2023/03/08 04:29:31;;;;;;;12.13;7.10;;;;;;;9.34;81.66;98667.13;4936502;29;20055;-69
2023/03/08 04:31:59;;;;;;;10.40;6.72;;;;;;;9.73;81.18;98672.41;4921901;29;20039;-69
2023/03/08 04:34:37;;;;;;;9.60;5.82;;;;;;;10.00;79.03;98654.16;4923695;29;20048;-70
2023/03/08 04:37:05;;;;;;;10.07;6.57;;;;;;;10.07;80.04;98654.31;4921807;29;20062;-70
2023/03/08 04:39:32;;;;;;;10.00;6.25;;;;;;;9.62;79.83;98630.13;4933712;29;20147;-70
2023/03/08 04:42:00;;;;;;;9.02;5.75;;;;;;;9.39;80.80;98637.44;4920241;29;20063;-70
2023/03/08 04:44:30;;;;;;;8.18;4.90;;;;;;;9.28;81.04;98635.56;4891696;29;20056;-69
2023/03/08 04:46:58;;;;;;;8.82;4.90;;;;;;;9.13;82.34;98600.66;4919696;29;20055;-69
2023/03/08 04:49:33;;;;;;;7.85;5.10;;;;;;;9.35;82.15;98624.75;4903881;29;20052;-70
2023/03/08 04:52:02;;;;;;;8.55;4.70;;;;;;;9.40;83.22;98621.72;4918803;29;20044;-69
2023/03/08 04:54:32;;;;;;;7.95;4.95;;;;;;;9.10;81.92;98622.19;4904506;29;20051;-69
2023/03/08 04:57:08;;;;;;;8.05;4.82;;;;;;;8.94;84.13;98590.41;4918105;29;20527;-69
2023/03/08 04:59:37;;;;;;;7.40;4.38;;;;;;;9.23;83.71;98595.44;4920021;29;20048;-70
2023/03/08 05:02:05;;;;;;;7.18;4.38;;;;;;;9.45;81.39;98605.00;4918042;29;20499;-69
2023/03/08 05:04:35;;;;;;;7.38;4.47;;;;;;;9.54;81.12;98603.63;4921353;29;20494;-69
2023/03/08 05:07:03;;;;;;;7.32;4.78;;;;;;;9.56;83.18;98592.28;4937537;29;20048;-70
2023/03/08 05:09:34;;;;;;;7.88;4.85;;;;;;;9.56;82.68;98603.25;4906986;29;20043;-70
2023/03/08 05:12:01;;;;;;;8.13;4.55;;;;;;;9.38;81.04;98593.84;4921472;29;20055;-70
2023/03/08 05:14:42;;;;;;;7.40;4.35;;;;;;;9.30;82.17;98578.31;4938733;29;20071;-69
2023/03/08 05:17:10;;;;;;;8.05;4.45;;;;;;;9.79;82.67;98585.75;4908953;29;20064;-69
2023/03/08 05:19:38;;;;;;;7.47;4.30;;;;;;;9.85;80.76;98587.03;4903463;29;20500;-69
2023/03/08 05:22:06;;;;;;;6.97;4.00;;;;;;;10.23;80.08;98578.84;4932325;29;20126;-69
2023/03/08 05:24:40;;;;;;;7.38;4.63;;;;;;;10.41;79.39;98576.44;4922765;29;20044;-69
2023/03/08 05:27:10;;;;;;;8.10;4.22;;;;;;;10.33;79.00;98565.66;4936866;29;20052;-69
2023/03/08 05:29:37;;;;;;;6.45;4.07;;;;;;;10.21;80.07;98563.88;4938553;29;20047;-69
2023/03/08 05:32:09;;;;;;;6.55;4.43;;;;;;;10.09;81.45;98556.53;4924900;29;20059;-68
2023/03/08 05:34:36;;;;;;;9.27;4.20;;;;;;;9.83;81.08;98541.84;4909554;29;20067;-70
2023/03/08 05:37:07;;;;;;;6.65;3.63;;;;;;;9.96;80.77;98546.81;4916497;29;20059;-71
2023/03/08 05:39:36;;;;;;;6.47;4.03;;;;;;;10.17;82.13;98549.22;4903760;29;20063;-70
2023/03/08 05:42:12;;;;;;;6.13;3.38;;;;;;;10.02;80.78;98550.09;4920745;29;20055;-69
2023/03/08 05:44:42;;;;;;;5.82;3.75;;;;;;;10.13;81.62;98551.91;4931152;29;20060;-69
2023/03/08 05:47:12;;;;;;;5.43;3.42;;;;;;;10.87;79.85;98550.53;4933433;29;20047;-71
2023/03/08 05:49:40;;;;;;;4.72;3.13;;;;;;;10.92;77.65;98541.97;4920185;29;20048;-69
2023/03/08 05:52:08;;;;;;;4.88;3.03;;;;;;;10.86;78.71;98548.16;4917988;29;20495;-68
2023/03/08 05:54:35;;;;;;;5.57;3.00;;;;;;;10.92;77.41;98552.97;4920709;29;20059;-69
2023/03/08 05:57:08;;;;;;;4.85;2.80;;;;;;;11.21;77.19;98541.25;4905841;29;20071;-69
2023/03/08 05:59:36;;;;;;;4.90;2.90;;;;;;;11.22;77.49;98539.31;4938554;29;20047;-70
2023/03/08 06:02:06;;;;;;;4.60;2.72;;;;;;;11.08;76.92;98537.13;4916496;29;20059;-70
2023/03/08 06:04:38;;;;;;;4.45;2.67;;;;;;;10.87;79.28;98542.28;4937985;29;20048;-70
2023/03/08 06:07:05;;;;;;;4.63;2.78;;;;;;;11.22;77.74;98542.84;4931849;29;20066;-69
2023/03/08 06:09:38;;;;;;;5.65;3.40;;;;;;;11.36;78.02;98536.75;4937967;29;20102;-70
2023/03/08 06:12:08;;;;;;;5.03;2.90;;;;;;;11.25;77.67;98538.56;4902925;29;20500;-69
2023/03/08 06:14:36;;;;;;;4.80;2.80;;;;;;;11.46;77.92;98536.13;4918907;29;20060;-69
2023/03/08 06:17:03;;;;;;;5.50;3.20;;;;;;;11.82;76.25;98549.25;4877721;29;20052;-71
2023/03/08 06:19:34;;;;;;;4.88;3.00;;;;;;;11.66;77.03;98545.91;4914516;29;20052;-69
2023/03/08 06:22:01;;;;;;;5.32;3.17;;;;;;;11.58;77.33;98546.91;4913946;29;20532;-70
2023/03/08 06:24:29;;;;;;;5.60;3.20;;;;;;;11.74;76.80;98558.59;4900057;29;20044;-70
2023/03/08 06:26:59;;;;;;;6.00;3.20;;;;;;;11.50;77.91;98564.53;4922779;29;20407;-69
2023/03/08 06:29:26;;;;;;;5.20;3.10;;;;;;;11.63;79.70;98551.34;4937420;29;20047;-69
2023/03/08 06:31:54;;;;;;;5.78;3.65;;;;;;;12.09;83.20;98561.84;4917218;29;20055;-70
2023/03/08 06:34:22;;;;;;;3.97;2.50;;;;;;;12.11;85.82;98561.44;4918690;29;20504;-70
2023/03/08 06:36:52;;;;;;;;;;;;;;;12.26;86.51;98572.28;4901513;29;20067;-68
2023/03/08 06:39:20;;;;;;;5.85;2.92;;;;;;;12.34;85.60;98560.13;4902666;29;19923;-69
2023/03/08 06:41:47;;;;;;;5.20;2.58;;;;;;;12.27;84.31;98557.31;4919607;29;20052;-70
2023/03/08 06:44:15;;;;;;;7.13;2.78;;;;;;;12.11;88.46;98555.94;4919919;29;20040;-70
2023/03/08 06:46:42;;;;;;;5.25;2.33;;;;;;;12.46;90.66;98557.13;4925523;29;20048;-70
2023/03/08 06:49:10;;;;;;;3.90;2.13;;;;;;;11.95;84.30;98566.38;4928041;29;20052;-70
2023/03/08 06:51:38;;;;;;;4.20;2.20;;;;;;;12.26;88.91;98557.69;4905213;29;20064;-70
2023/03/08 06:54:05;;;;;;;5.20;2.13;;;;;;;12.42;91.37;98559.06;4913325;29;20052;-69
2023/03/08 06:56:33;;;;;;;3.20;2.05;;;;;;;12.30;87.22;98564.03;4918089;29;20064;-70
2023/03/08 06:59:01;;;;;;;2.97;1.80;;;;;;;12.63;90.42;98547.44;4919626;29;20056;-72
2023/03/08 07:01:28;;;;;;;4.32;1.90;;;;;;;12.87;87.42;98552.41;4917532;29;20048;-71
2023/03/08 07:03:55;;;;;;;4.30;2.05;;;;;;;12.79;86.51;98553.53;4919634;29;20052;-69
2023/03/08 07:06:23;;;;;;;6.60;2.10;;;;;;;12.95;85.50;98558.81;4918315;29;20060;-70
2023/03/08 07:08:50;;;;;;;4.40;2.10;;;;;;;13.13;85.12;98560.56;4903357;29;20056;-71
2023/03/08 07:11:18;;;;;;;4.20;2.13;;;;;;;13.24;85.27;98563.41;4916869;29;20388;-71
2023/03/08 07:13:45;;;;;;;3.80;1.70;;;;;;;13.42;85.65;98556.84;4919549;29;20083;-70
2023/03/08 07:16:13;;;;;;;4.78;1.95;;;;;;;13.60;83.69;98547.88;4918047;29;20492;-68
2023/03/08 07:18:40;;;;;;;3.03;1.63;;;;;;;13.72;82.64;98561.38;4891831;29;20064;-67
2023/03/08 07:21:09;;;;;;;7.22;2.20;;;;;;;13.64;82.31;98571.59;4939675;29;20051;-69
2023/03/08 07:23:36;;;;;;;7.03;2.08;;;;;;;13.75;82.23;98555.06;4930665;29;20052;-69
2023/03/08 07:26:05;;;;;;;4.13;1.70;;;;;;;13.63;81.38;98545.13;4915540;29;20059;-70
2023/03/08 07:28:33;;;;;;;6.88;2.10;;;;;;;13.70;83.06;98547.94;4920079;29;20059;-69
2023/03/08 07:31:00;;;;;;;6.78;2.10;;;;;;;13.51;81.07;98551.00;4907293;29;20055;-70
2023/03/08 07:33:28;;;;;;;5.93;2.10;;;;;;;13.56;82.08;98550.63;4917864;29;20504;-70
2023/03/08 07:36:00;;;;;;;4.20;1.67;;;;;;;13.74;82.12;98547.97;4917285;29;20060;-69
2023/03/08 07:38:28;;;;;;;3.88;1.35;;;;;;;13.69;81.18;98551.06;4902605;29;20051;-70
2023/03/08 07:40:56;;;;;;;8.00;2.13;;;;;;;13.43;82.79;98563.97;4901159;29;20067;-68
2023/03/08 07:43:23;;;;;;;4.75;1.40;;;;;;;13.44;81.77;98551.72;4916400;29;20059;-69
2023/03/08 07:46:00;;;;;;;8.73;1.80;;;;;;;13.39;82.54;98556.81;4916705;29;20052;-69
2023/03/08 07:48:28;;;;;;;6.80;1.73;;;;;;;13.69;81.54;98562.13;4904415;29;20059;-69
2023/03/08 07:51:05;;;;;;;4.57;1.30;;;;;;;13.33;81.22;98572.19;4916804;29;20048;-66
2023/03/08 07:53:33;;;;;;;10.23;1.90;;;;;;;13.74;83.32;98550.75;4915458;29;20051;-66
2023/03/08 07:56:00;;;;;;;8.98;2.50;;;;;;;13.67;82.74;98564.53;4919280;29;20063;-66
2023/03/08 07:58:28;;;;;;;6.40;1.42;;;;;;;13.66;81.37;98558.19;4919268;29;20563;-66
2023/03/08 08:00:55;;;;;;;8.45;2.40;;;;;;;13.53;81.62;98568.78;4919839;29;20047;-66
2023/03/08 08:03:23;;;;;;;7.88;2.05;;;;;;;13.72;83.44;98575.22;4919863;29;20473;-65
2023/03/08 08:05:50;;;;;;;9.85;2.20;;;;;;;14.23;80.61;98581.41;4901668;29;20083;-66
2023/03/08 08:08:18;;;;;;;9.57;2.30;;;;;;;14.44;78.93;98576.78;4920546;29;20056;-64
2023/03/08 08:10:46;;;;;;;8.85;2.70;;;;;;;14.66;77.14;98586.72;4917304;29;20048;-67
2023/03/08 08:13:13;;;;;;;5.05;1.23;;;;;;;14.32;77.84;98592.97;4921114;29;20044;-65
2023/03/08 08:15:40;;;;;;;6.53;1.88;;;;;;;14.44;79.17;98598.94;4917930;29;20530;-65
2023/03/08 08:18:08;;;;;;;10.52;1.80;;;;;;;14.65;77.48;98599.03;4915527;29;20048;-65
2023/03/08 08:20:36;;;;;;;7.68;1.88;;;;;;;14.63;77.65;98600.56;4915456;29;20048;-65
2023/03/08 08:23:06;;;;;;;10.00;2.38;;;;;;;14.02;78.68;98597.91;4918284;29;20067;-64
2023/03/08 08:25:34;;;;;;;8.00;2.00;;;;;;;14.16;79.43;98592.44;4918747;29;20412;-65
2023/03/08 08:28:01;;;;;;;6.50;1.70;;;;;;;14.27;80.12;98599.66;4915231;29;20063;-66
2023/03/08 08:30:29;;;;;;;9.73;2.25;;;;;;;14.02;80.91;98595.94;4916311;29;20048;-65
2023/03/08 08:32:56;;;;;;;9.70;2.22;;;;;;;14.47;79.33;98589.84;4905194;29;20056;-66
2023/03/08 08:35:23;;;;;;;6.70;1.92;;;;;;;14.45;78.18;98588.66;4919913;29;20056;-65
2023/03/08 08:38:08;;;;;;;8.30;1.70;;;;;;;14.65;77.79;98606.53;4919415;29;20083;-65
2023/03/08 08:40:36;;;;;;;10.55;2.00;;;;;;;14.94;76.73;98601.84;4918330;29;20056;-65
2023/03/08 08:43:03;;;;;;;8.75;2.08;;;;;;;14.87;76.63;98610.16;4918352;29;20055;-66
2023/03/08 08:45:30;;;;;;;8.43;2.15;;;;;;;15.09;75.95;98618.13;4918663;29;20056;-65
2023/03/08 08:47:58;;;;;;;9.68;2.40;;;;;;;14.68;77.43;98609.31;4890752;29;20060;-66
2023/03/08 08:50:25;;;;;;;9.73;2.38;;;;;;;14.65;79.26;98618.41;4918984;29;20052;-65
2023/03/08 08:52:53;;;;;;;17.25;2.92;;;;;;;15.00;77.22;98612.16;4919585;29;20485;-65
2023/03/08 08:55:20;;;;;;;15.45;2.65;;;;;;;14.83;78.30;98626.78;4918823;29;20401;-66
2023/03/08 08:57:48;;;;;;;12.65;2.30;;;;;;;14.71;79.48;98618.84;4920175;29;20051;-65
2023/03/08 09:00:18;;;;;;;9.90;2.10;;;;;;;14.79;79.46;98614.88;4920165;29;20060;-66
2023/03/08 09:02:46;;;;;;;9.18;1.92;;;;;;;14.47;80.64;98628.63;4917476;29;20075;-65
2023/03/08 09:05:13;;;;;;;12.50;2.03;;;;;;;14.88;80.06;98620.03;4914031;29;20147;-67
2023/03/08 09:07:41;;;;;;;6.40;1.73;;;;;;;15.17;77.82;98613.34;4917406;29;20407;-67
2023/03/08 09:10:09;;;;;;;9.25;1.88;;;;;;;15.15;78.12;98610.97;4885352;29;20052;-67
2023/03/08 09:12:37;;;;;;;15.90;2.50;;;;;;;15.37;77.00;98609.81;4919221;29;20048;-67
2023/03/08 09:15:05;;;;;;;7.97;2.10;;;;;;;15.45;76.34;98607.84;4923199;29;20048;-67
2023/03/08 09:17:33;;;;;;;10.52;2.05;;;;;;;15.41;76.65;98599.53;4896510;29;20064;-66
2023/03/08 09:20:00;;;;;;;7.32;1.58;;;;;;;15.24;77.24;98613.38;4902531;29;20060;-67
2023/03/08 09:22:28;;;;;;;10.38;2.33;;;;;;;15.49;76.29;98609.47;4913088;29;20440;-67
2023/03/08 09:24:56;;;;;;;7.53;1.90;;;;;;;15.47;76.30;98619.34;4903824;29;20056;-67
2023/03/08 09:27:23;;;;;;;4.82;1.60;;;;;;;15.75;74.91;98622.91;4917167;29;20052;-68
2023/03/08 09:29:51;;;;;;;8.75;1.98;;;;;;;15.68;74.81;98619.34;4920093;29;20044;-67
2023/03/08 09:32:18;;;;;;;11.27;1.95;;;;;;;15.55;75.67;98630.06;4898947;29;20055;-67
2023/03/08 09:34:47;;;;;;;8.43;1.75;;;;;;;15.57;75.92;98632.44;4912005;29;20044;-67
2023/03/08 09:37:14;;;;;;;8.82;1.67;;;;;;;15.94;74.31;98627.25;4918701;29;20420;-67
2023/03/08 09:39:43;;;;;;;9.65;2.17;;;;;;;16.21;73.23;98616.47;4916258;29;20063;-68
2023/03/08 09:42:21;;;;;;;10.07;2.03;;;;;;;16.37;71.95;98627.94;4917148;29;20052;-68
2023/03/08 09:45:13;;;;;;;9.52;1.90;;;;;;;15.66;75.05;98635.59;4900068;29;20048;-67
2023/03/08 09:48:06;;;;;;;7.50;1.98;;;;;;;15.76;74.90;98645.91;4918388;29;20488;-67
2023/03/08 09:50:44;;;;;;;8.82;2.08;;;;;;;15.42;75.71;98637.19;4909204;29;20059;-67
2023/03/08 09:53:36;;;;;;;7.88;1.73;;;;;;;15.64;75.46;98637.97;4918441;29;20063;-68
2023/03/08 09:56:15;;;;;;;11.00;2.03;;;;;;;15.90;74.92;98629.22;4918236;29;20079;-69
2023/03/08 09:58:47;;;;;;;10.75;1.95;;;;;;;15.45;75.36;98627.28;4918640;29;20067;-66
2023/03/08 10:01:38;;;;;;;7.68;1.60;;;;;;;14.88;78.65;98645.00;4916847;29;20112;-67
2023/03/08 10:04:23;;;;;;;;;;;;;;;15.19;78.23;98636.75;4898574;29;20146;-66
2023/03/08 10:07:09;;;;;;;8.38;2.05;;;;;;;15.23;78.18;98637.56;4917021;29;19923;-68
2023/03/08 10:09:47;;;;;;;6.65;2.00;;;;;;;15.71;76.70;98654.63;4916603;29;20052;-66
2023/03/08 10:12:43;;;;;;;8.20;2.03;;;;;;;15.62;76.02;98648.72;4916153;29;20048;-67
2023/03/08 10:15:14;;;;;;;8.63;2.42;;;;;;;15.91;75.22;98674.44;4924046;29;20044;-66
2023/03/08 10:18:14;;;;;;;10.07;2.03;;;;;;;16.14;74.47;98674.81;4916263;29;20052;-67
2023/03/08 10:20:42;;;;;;;13.98;2.42;;;;;;;16.68;71.72;98666.72;4892243;29;20060;-65
2023/03/08 10:23:16;;;;;;;10.35;2.13;;;;;;;16.45;72.39;98654.50;4918185;29;20048;-66
2023/03/08 10:25:44;;;;;;;8.48;1.90;;;;;;;16.33;72.53;98652.16;4917943;29;20047;-67
2023/03/08 10:28:16;;;;;;;10.38;2.13;;;;;;;16.56;71.75;98656.06;4915402;29;20060;-67
2023/03/08 10:30:46;;;;;;;7.50;1.85;;;;;;;16.34;72.18;98651.75;4915878;29;20084;-67
2023/03/08 10:33:16;;;;;;;;;;;;;;;16.29;72.52;98659.69;4917198;29;20063;-67
2023/03/08 10:35:56;;;;;;;8.45;1.98;;;;;;;16.28;72.06;98660.91;4919237;29;19927;-67
2023/03/08 10:38:26;;;;;;;6.63;1.90;;;;;;;16.21;72.52;98666.47;4919500;29;20063;-68
2023/03/08 10:41:03;;;;;;;8.75;1.67;;;;;;;16.11;73.89;98673.63;4930605;29;20059;-72
2023/03/08 10:43:39;;;;;;;9.45;1.92;;;;;;;16.18;73.06;98690.28;4920487;29;20080;-68
2023/03/08 10:46:13;;;;;;;8.65;1.83;;;;;;;16.29;73.67;98681.94;4904016;29;20047;-69
2023/03/08 10:48:41;;;;;;;6.95;1.65;;;;;;;16.27;73.67;98682.31;4918276;29;20048;-68
2023/03/08 10:51:16;;;;;;;6.43;1.73;;;;;;;16.60;72.73;98681.88;4898885;29;20060;-63
2023/03/08 10:54:01;;;;;;;6.20;1.65;;;;;;;16.42;73.27;98694.22;4919245;29;20048;-39
2023/03/08 10:56:52;;;;;;;12.27;2.35;;;;;;;16.24;73.76;98697.03;4918909;29;20062;-63
2023/03/08 10:59:26;;;;;;;10.10;2.13;;;;;;;16.10;74.30;98694.28;4933491;29;20067;-63
2023/03/08 11:01:57;;;;;;;10.27;2.70;;;;;;;15.99;75.08;98679.59;4917443;29;20124;-64
2023/03/08 11:04:27;;;;;;;8.73;2.40;;;;;;;15.76;76.29;98685.56;4904394;29;20055;-64
2023/03/08 11:06:55;;;;;;;8.82;2.03;;;;;;;15.75;76.21;98689.53;4921198;29;20067;-63
2023/03/08 11:09:26;;;;;;;11.43;2.63;;;;;;;15.85;76.14;98696.25;4906094;29;20060;-63
2023/03/08 11:11:55;;;;;;;5.95;1.88;;;;;;;15.70;77.30;98689.13;4919442;29;20055;-64
2023/03/08 11:14:24;;;;;;;7.10;2.00;;;;;;;16.24;75.94;98696.22;4920331;29;20514;-63
2023/03/08 11:17:10;;;;;;;9.45;3.80;;;;;;;16.26;75.26;98702.19;4920762;29;20431;-63
2023/03/08 11:20:09;;;;;;;11.80;4.20;;;;;;;16.25;75.15;98678.38;4915938;29;20105;-62
2023/03/08 11:22:44;;;;;;;9.77;3.13;;;;;;;16.26;74.87;98686.31;4911831;29;20063;-64
2023/03/08 11:25:18;;;;;;;10.25;2.67;;;;;;;16.23;75.34;98677.97;4921802;29;20389;-64
2023/03/08 11:27:57;;;;;;;7.32;2.75;;;;;;;16.15;75.80;98688.31;4925010;29;20506;-65
2023/03/08 11:30:35;;;;;;;7.33;2.00;;;;;;;16.03;76.12;98685.94;4920748;29;20051;-64
2023/03/08 11:33:18;;;;;;;7.38;2.30;;;;;;;16.34;75.93;98698.19;4919741;29;20150;-65
2023/03/08 11:36:05;;;;;;;8.95;3.58;;;;;;;16.39;75.90;98698.56;4918893;29;20057;-64
2023/03/08 11:38:34;;;;;;;5.05;2.63;;;;;;;16.47;75.88;98704.94;4920656;29;20059;-63
2023/03/08 11:41:10;;;;;;;6.55;2.97;;;;;;;16.47;74.68;98697.41;4919964;29;20503;-65
2023/03/08 11:43:50;;;;;;;8.13;3.10;;;;;;;16.49;75.36;98711.66;4921432;29;20063;-64
2023/03/08 11:46:21;;;;;;;;;;;;;;;16.50;75.60;98704.13;4924951;29;20431;-63